sensor_id;sensor_type;location;lat;lon;timestamp;P1;durP1;ratioP1;P2;durP2;ratioP2
45208;SDS011;30951;43.994;26.260;2023-02-14T00:02:18;143.25;;;60.75;;
45208;SDS011;30951;43.994;26.260;2023-02-14T00:04:43;145.77;;;65.63;;
45208;SDS011;30951;43.994;26.260;2023-02-14T00:07:11;143.43;;;60.13;;
45208;SDS011;30951;43.994;26.260;2023-02-14T00:09:36;148.18;;;60.70;;
45208;SDS011;30951;43.994;26.260;2023-02-14T00:12:02;148.48;;;58.05;;
45208;SDS011;30951;43.994;26.260;2023-02-14T00:14:28;144.52;;;57.80;;
45208;SDS011;30951;43.994;26.260;2023-02-14T00:17:12;129.32;;;56.88;;
45208;SDS011;30951;43.994;26.260;2023-02-14T00:19:38;134.48;;;57.63;;
45208;SDS011;30951;43.994;26.260;2023-02-14T00:22:03;132.40;;;57.00;;
45208;SDS011;30951;43.994;26.260;2023-02-14T00:24:29;135.63;;;58.17;;
45208;SDS011;30951;43.994;26.260;2023-02-14T00:26:55;130.18;;;58.25;;
45208;SDS011;30951;43.994;26.260;2023-02-14T00:29:21;128.98;;;57.50;;
45208;SDS011;30951;43.994;26.260;2023-02-14T00:31:52;133.65;;;56.78;;
45208;SDS011;30951;43.994;26.260;2023-02-14T00:34:17;124.85;;;56.03;;
45208;SDS011;30951;43.994;26.260;2023-02-14T00:36:43;120.72;;;57.60;;
45208;SDS011;30951;43.994;26.260;2023-02-14T00:39:10;135.57;;;56.00;;
45208;SDS011;30951;43.994;26.260;2023-02-14T00:41:37;118.75;;;55.53;;
45208;SDS011;30951;43.994;26.260;2023-02-14T00:44:02;128.48;;;58.47;;
45208;SDS011;30951;43.994;26.260;2023-02-14T00:46:28;121.88;;;54.65;;
45208;SDS011;30951;43.994;26.260;2023-02-14T00:48:54;112.32;;;55.08;;
45208;SDS011;30951;43.994;26.260;2023-02-14T00:51:19;113.65;;;51.00;;
45208;SDS011;30951;43.994;26.260;2023-02-14T00:53:46;116.80;;;52.70;;
45208;SDS011;30951;43.994;26.260;2023-02-14T00:56:13;104.80;;;47.85;;
45208;SDS011;30951;43.994;26.260;2023-02-14T00:58:39;110.10;;;48.08;;
45208;SDS011;30951;43.994;26.260;2023-02-14T01:01:05;100.03;;;44.88;;
45208;SDS011;30951;43.994;26.260;2023-02-14T01:03:31;109.50;;;48.00;;
45208;SDS011;30951;43.994;26.260;2023-02-14T01:05:56;109.88;;;49.33;;
45208;SDS011;30951;43.994;26.260;2023-02-14T01:08:22;102.07;;;46.78;;
45208;SDS011;30951;43.994;26.260;2023-02-14T01:10:48;113.63;;;48.42;;
45208;SDS011;30951;43.994;26.260;2023-02-14T01:13:13;111.15;;;47.58;;
45208;SDS011;30951;43.994;26.260;2023-02-14T01:15:43;125.75;;;51.33;;
45208;SDS011;30951;43.994;26.260;2023-02-14T01:18:11;126.72;;;52.25;;
45208;SDS011;30951;43.994;26.260;2023-02-14T01:20:41;129.77;;;52.33;;
45208;SDS011;30951;43.994;26.260;2023-02-14T01:23:06;135.27;;;53.28;;
45208;SDS011;30951;43.994;26.260;2023-02-14T01:25:32;131.52;;;53.97;;
45208;SDS011;30951;43.994;26.260;2023-02-14T01:27:58;131.95;;;56.58;;
45208;SDS011;30951;43.994;26.260;2023-02-14T01:30:23;144.18;;;60.35;;
45208;SDS011;30951;43.994;26.260;2023-02-14T01:32:49;138.05;;;57.95;;
45208;SDS011;30951;43.994;26.260;2023-02-14T01:35:15;136.00;;;56.22;;
45208;SDS011;30951;43.994;26.260;2023-02-14T01:37:40;140.63;;;59.75;;
45208;SDS011;30951;43.994;26.260;2023-02-14T01:40:06;122.25;;;54.80;;
45208;SDS011;30951;43.994;26.260;2023-02-14T01:42:33;117.05;;;55.25;;
45208;SDS011;30951;43.994;26.260;2023-02-14T01:47:26;114.47;;;52.55;;
45208;SDS011;30951;43.994;26.260;2023-02-14T01:49:55;119.47;;;53.50;;
45208;SDS011;30951;43.994;26.260;2023-02-14T01:52:45;113.00;;;48.53;;
45208;SDS011;30951;43.994;26.260;2023-02-14T01:55:23;111.13;;;50.25;;
45208;SDS011;30951;43.994;26.260;2023-02-14T01:57:53;109.90;;;49.47;;
45208;SDS011;30951;43.994;26.260;2023-02-14T02:00:32;112.30;;;50.47;;
45208;SDS011;30951;43.994;26.260;2023-02-14T02:03:17;118.20;;;50.08;;
45208;SDS011;30951;43.994;26.260;2023-02-14T02:05:44;106.57;;;48.78;;
45208;SDS011;30951;43.994;26.260;2023-02-14T02:08:12;124.22;;;50.25;;
45208;SDS011;30951;43.994;26.260;2023-02-14T02:10:37;115.80;;;49.38;;
45208;SDS011;30951;43.994;26.260;2023-02-14T02:13:07;123.00;;;52.50;;
45208;SDS011;30951;43.994;26.260;2023-02-14T02:15:35;125.22;;;49.38;;
45208;SDS011;30951;43.994;26.260;2023-02-14T02:18:13;118.10;;;51.30;;
45208;SDS011;30951;43.994;26.260;2023-02-14T02:20:51;125.07;;;50.83;;
45208;SDS011;30951;43.994;26.260;2023-02-14T02:26:20;119.22;;;52.50;;
45208;SDS011;30951;43.994;26.260;2023-02-14T02:39:59;262.00;;;67.93;;
45208;SDS011;30951;43.994;26.260;2023-02-14T02:42:49;370.05;;;72.18;;
45208;SDS011;30951;43.994;26.260;2023-02-14T02:45:44;148.88;;;51.03;;
45208;SDS011;30951;43.994;26.260;2023-02-14T02:48:34;627.90;;;78.82;;
45208;SDS011;30951;43.994;26.260;2023-02-14T02:51:05;120.97;;;48.72;;
45208;SDS011;30951;43.994;26.260;2023-02-14T02:54:03;115.78;;;46.95;;
45208;SDS011;30951;43.994;26.260;2023-02-14T02:56:34;118.03;;;45.72;;
45208;SDS011;30951;43.994;26.260;2023-02-14T02:59:14;106.45;;;43.83;;
45208;SDS011;30951;43.994;26.260;2023-02-14T03:04:22;162.93;;;62.17;;
45208;SDS011;30951;43.994;26.260;2023-02-14T03:07:07;137.60;;;58.60;;
45208;SDS011;30951;43.994;26.260;2023-02-14T03:09:52;108.63;;;47.05;;
45208;SDS011;30951;43.994;26.260;2023-02-14T03:14:52;97.13;;;42.47;;
45208;SDS011;30951;43.994;26.260;2023-02-14T03:17:34;107.38;;;43.25;;
45208;SDS011;30951;43.994;26.260;2023-02-14T03:22:51;116.45;;;46.92;;
45208;SDS011;30951;43.994;26.260;2023-02-14T03:30:45;95.40;;;41.85;;
45208;SDS011;30951;43.994;26.260;2023-02-14T03:33:39;101.03;;;44.20;;
45208;SDS011;30951;43.994;26.260;2023-02-14T03:38:49;96.30;;;40.47;;
45208;SDS011;30951;43.994;26.260;2023-02-14T03:41:21;95.22;;;41.55;;
45208;SDS011;30951;43.994;26.260;2023-02-14T03:43:53;88.57;;;38.63;;
45208;SDS011;30951;43.994;26.260;2023-02-14T03:46:40;89.53;;;39.58;;
45208;SDS011;30951;43.994;26.260;2023-02-14T03:49:10;101.43;;;43.53;;
45208;SDS011;30951;43.994;26.260;2023-02-14T03:51:37;113.40;;;50.58;;
45208;SDS011;30951;43.994;26.260;2023-02-14T03:54:03;113.55;;;48.55;;
45208;SDS011;30951;43.994;26.260;2023-02-14T03:56:35;107.25;;;48.83;;
45208;SDS011;30951;43.994;26.260;2023-02-14T03:59:23;114.85;;;52.35;;
45208;SDS011;30951;43.994;26.260;2023-02-14T04:01:58;164.88;;;54.38;;
45208;SDS011;30951;43.994;26.260;2023-02-14T04:04:29;891.83;;;84.57;;
45208;SDS011;30951;43.994;26.260;2023-02-14T04:06:57;440.73;;;67.63;;
45208;SDS011;30951;43.994;26.260;2023-02-14T04:09:22;870.15;;;79.65;;
45208;SDS011;30951;43.994;26.260;2023-02-14T04:11:48;1271.07;;;96.82;;
45208;SDS011;30951;43.994;26.260;2023-02-14T04:14:14;111.20;;;49.33;;
45208;SDS011;30951;43.994;26.260;2023-02-14T04:16:40;113.13;;;49.30;;
45208;SDS011;30951;43.994;26.260;2023-02-14T04:19:24;252.90;;;59.90;;
45208;SDS011;30951;43.994;26.260;2023-02-14T04:21:50;814.85;;;80.95;;
45208;SDS011;30951;43.994;26.260;2023-02-14T04:24:16;1262.53;;;114.20;;
45208;SDS011;30951;43.994;26.260;2023-02-14T04:26:42;91.55;;;38.55;;
45208;SDS011;30951;43.994;26.260;2023-02-14T04:29:34;86.80;;;37.17;;
45208;SDS011;30951;43.994;26.260;2023-02-14T04:32:05;84.38;;;36.38;;
45208;SDS011;30951;43.994;26.260;2023-02-14T04:34:34;83.18;;;36.78;;
45208;SDS011;30951;43.994;26.260;2023-02-14T04:37:00;83.85;;;37.42;;
45208;SDS011;30951;43.994;26.260;2023-02-14T04:39:26;90.38;;;35.75;;
45208;SDS011;30951;43.994;26.260;2023-02-14T04:41:52;98.97;;;39.03;;
45208;SDS011;30951;43.994;26.260;2023-02-14T04:44:17;95.00;;;39.20;;
45208;SDS011;30951;43.994;26.260;2023-02-14T04:46:42;103.55;;;40.33;;
45208;SDS011;30951;43.994;26.260;2023-02-14T04:49:08;105.63;;;42.83;;
45208;SDS011;30951;43.994;26.260;2023-02-14T04:51:33;101.68;;;40.92;;
45208;SDS011;30951;43.994;26.260;2023-02-14T04:53:59;104.20;;;41.63;;
45208;SDS011;30951;43.994;26.260;2023-02-14T04:56:24;103.65;;;42.05;;
45208;SDS011;30951;43.994;26.260;2023-02-14T04:58:51;105.25;;;42.10;;
45208;SDS011;30951;43.994;26.260;2023-02-14T05:01:17;98.80;;;42.70;;
45208;SDS011;30951;43.994;26.260;2023-02-14T05:03:43;101.35;;;42.10;;
45208;SDS011;30951;43.994;26.260;2023-02-14T05:06:08;114.07;;;41.47;;
45208;SDS011;30951;43.994;26.260;2023-02-14T05:08:33;103.68;;;42.88;;
45208;SDS011;30951;43.994;26.260;2023-02-14T05:10:59;106.15;;;40.63;;
45208;SDS011;30951;43.994;26.260;2023-02-14T05:13:24;129.02;;;51.72;;
45208;SDS011;30951;43.994;26.260;2023-02-14T05:15:50;103.78;;;42.80;;
45208;SDS011;30951;43.994;26.260;2023-02-14T05:18:15;115.35;;;42.92;;
45208;SDS011;30951;43.994;26.260;2023-02-14T05:20:41;105.28;;;44.42;;
45208;SDS011;30951;43.994;26.260;2023-02-14T05:23:06;114.53;;;46.13;;
45208;SDS011;30951;43.994;26.260;2023-02-14T05:25:38;110.47;;;43.88;;
45208;SDS011;30951;43.994;26.260;2023-02-14T05:28:04;115.53;;;47.30;;
45208;SDS011;30951;43.994;26.260;2023-02-14T05:30:30;107.57;;;47.20;;
45208;SDS011;30951;43.994;26.260;2023-02-14T05:32:55;110.72;;;45.00;;
45208;SDS011;30951;43.994;26.260;2023-02-14T05:35:21;108.95;;;44.67;;
45208;SDS011;30951;43.994;26.260;2023-02-14T05:37:46;109.03;;;44.88;;
45208;SDS011;30951;43.994;26.260;2023-02-14T05:40:12;117.78;;;46.05;;
45208;SDS011;30951;43.994;26.260;2023-02-14T05:42:39;119.65;;;47.63;;
45208;SDS011;30951;43.994;26.260;2023-02-14T05:45:04;108.63;;;45.03;;
45208;SDS011;30951;43.994;26.260;2023-02-14T05:47:30;108.30;;;44.63;;
45208;SDS011;30951;43.994;26.260;2023-02-14T05:49:56;105.55;;;43.80;;
45208;SDS011;30951;43.994;26.260;2023-02-14T05:52:21;112.85;;;43.00;;
45208;SDS011;30951;43.994;26.260;2023-02-14T05:54:47;116.03;;;43.08;;
45208;SDS011;30951;43.994;26.260;2023-02-14T05:57:12;119.45;;;45.63;;
45208;SDS011;30951;43.994;26.260;2023-02-14T05:59:38;105.95;;;42.08;;
45208;SDS011;30951;43.994;26.260;2023-02-14T06:02:03;112.43;;;44.28;;
45208;SDS011;30951;43.994;26.260;2023-02-14T06:04:28;116.22;;;48.30;;
45208;SDS011;30951;43.994;26.260;2023-02-14T06:06:54;110.53;;;46.33;;
45208;SDS011;30951;43.994;26.260;2023-02-14T06:09:19;107.43;;;46.60;;
45208;SDS011;30951;43.994;26.260;2023-02-14T06:11:45;113.03;;;48.83;;
45208;SDS011;30951;43.994;26.260;2023-02-14T06:14:10;105.65;;;46.70;;
45208;SDS011;30951;43.994;26.260;2023-02-14T06:16:36;107.00;;;46.88;;
45208;SDS011;30951;43.994;26.260;2023-02-14T06:19:01;124.78;;;50.70;;
45208;SDS011;30951;43.994;26.260;2023-02-14T06:21:27;118.40;;;51.08;;
45208;SDS011;30951;43.994;26.260;2023-02-14T06:23:52;114.63;;;49.08;;
45208;SDS011;30951;43.994;26.260;2023-02-14T06:26:18;108.90;;;49.45;;
45208;SDS011;30951;43.994;26.260;2023-02-14T06:28:43;114.07;;;49.83;;
45208;SDS011;30951;43.994;26.260;2023-02-14T06:31:13;108.40;;;47.53;;
45208;SDS011;30951;43.994;26.260;2023-02-14T06:33:40;124.63;;;55.13;;
45208;SDS011;30951;43.994;26.260;2023-02-14T06:36:06;123.68;;;56.30;;
45208;SDS011;30951;43.994;26.260;2023-02-14T06:38:31;118.47;;;53.28;;
45208;SDS011;30951;43.994;26.260;2023-02-14T06:41:01;115.47;;;53.58;;
45208;SDS011;30951;43.994;26.260;2023-02-14T06:43:28;103.68;;;49.67;;
45208;SDS011;30951;43.994;26.260;2023-02-14T06:45:53;104.88;;;49.10;;
45208;SDS011;30951;43.994;26.260;2023-02-14T06:48:19;114.72;;;50.30;;
45208;SDS011;30951;43.994;26.260;2023-02-14T06:50:45;104.35;;;53.22;;
45208;SDS011;30951;43.994;26.260;2023-02-14T06:53:11;109.07;;;53.28;;
45208;SDS011;30951;43.994;26.260;2023-02-14T06:55:36;114.00;;;54.60;;
45208;SDS011;30951;43.994;26.260;2023-02-14T06:58:02;108.43;;;51.72;;
45208;SDS011;30951;43.994;26.260;2023-02-14T07:00:27;100.75;;;48.70;;
45208;SDS011;30951;43.994;26.260;2023-02-14T07:02:53;88.07;;;44.28;;
45208;SDS011;30951;43.994;26.260;2023-02-14T07:05:18;82.55;;;41.63;;
45208;SDS011;30951;43.994;26.260;2023-02-14T07:07:44;73.20;;;34.22;;
45208;SDS011;30951;43.994;26.260;2023-02-14T07:10:10;88.25;;;40.75;;
45208;SDS011;30951;43.994;26.260;2023-02-14T07:12:36;71.55;;;32.47;;
45208;SDS011;30951;43.994;26.260;2023-02-14T07:15:04;62.40;;;31.42;;
45208;SDS011;30951;43.994;26.260;2023-02-14T07:17:31;71.38;;;36.05;;
45208;SDS011;30951;43.994;26.260;2023-02-14T07:19:56;57.80;;;30.20;;
45208;SDS011;30951;43.994;26.260;2023-02-14T07:22:22;50.55;;;26.98;;
45208;SDS011;30951;43.994;26.260;2023-02-14T07:24:47;53.60;;;27.55;;
45208;SDS011;30951;43.994;26.260;2023-02-14T07:27:12;50.80;;;28.83;;
45208;SDS011;30951;43.994;26.260;2023-02-14T07:29:38;58.60;;;26.98;;
45208;SDS011;30951;43.994;26.260;2023-02-14T07:32:03;49.10;;;24.77;;
45208;SDS011;30951;43.994;26.260;2023-02-14T07:34:29;49.88;;;27.13;;
45208;SDS011;30951;43.994;26.260;2023-02-14T07:36:54;63.08;;;29.13;;
45208;SDS011;30951;43.994;26.260;2023-02-14T07:39:20;57.30;;;28.35;;
45208;SDS011;30951;43.994;26.260;2023-02-14T07:41:45;58.55;;;31.08;;
45208;SDS011;30951;43.994;26.260;2023-02-14T07:44:12;59.63;;;29.20;;
45208;SDS011;30951;43.994;26.260;2023-02-14T07:46:38;45.47;;;23.55;;
45208;SDS011;30951;43.994;26.260;2023-02-14T07:49:03;45.05;;;23.27;;
45208;SDS011;30951;43.994;26.260;2023-02-14T07:51:29;49.70;;;25.63;;
45208;SDS011;30951;43.994;26.260;2023-02-14T07:53:54;51.78;;;28.80;;
45208;SDS011;30951;43.994;26.260;2023-02-14T07:56:20;52.50;;;27.85;;
45208;SDS011;30951;43.994;26.260;2023-02-14T07:58:45;48.17;;;26.30;;
45208;SDS011;30951;43.994;26.260;2023-02-14T08:01:11;59.35;;;30.23;;
45208;SDS011;30951;43.994;26.260;2023-02-14T08:03:36;43.20;;;22.77;;
45208;SDS011;30951;43.994;26.260;2023-02-14T08:06:03;46.05;;;25.27;;
45208;SDS011;30951;43.994;26.260;2023-02-14T08:08:29;46.13;;;26.65;;
45208;SDS011;30951;43.994;26.260;2023-02-14T08:10:55;48.15;;;24.45;;
45208;SDS011;30951;43.994;26.260;2023-02-14T08:13:21;48.78;;;23.73;;
45208;SDS011;30951;43.994;26.260;2023-02-14T08:15:47;50.40;;;26.98;;
45208;SDS011;30951;43.994;26.260;2023-02-14T08:18:38;47.65;;;28.08;;
45208;SDS011;30951;43.994;26.260;2023-02-14T08:21:05;49.50;;;23.70;;
45208;SDS011;30951;43.994;26.260;2023-02-14T08:23:32;42.60;;;22.90;;
45208;SDS011;30951;43.994;26.260;2023-02-14T08:25:57;49.72;;;26.25;;
45208;SDS011;30951;43.994;26.260;2023-02-14T08:28:23;46.47;;;23.73;;
45208;SDS011;30951;43.994;26.260;2023-02-14T08:30:49;45.67;;;25.08;;
45208;SDS011;30951;43.994;26.260;2023-02-14T08:33:15;47.33;;;25.85;;
45208;SDS011;30951;43.994;26.260;2023-02-14T08:35:41;47.97;;;25.75;;
45208;SDS011;30951;43.994;26.260;2023-02-14T08:38:06;51.83;;;28.55;;
45208;SDS011;30951;43.994;26.260;2023-02-14T08:40:33;60.00;;;32.97;;
45208;SDS011;30951;43.994;26.260;2023-02-14T08:42:59;58.70;;;31.08;;
45208;SDS011;30951;43.994;26.260;2023-02-14T08:45:24;57.65;;;34.42;;
45208;SDS011;30951;43.994;26.260;2023-02-14T08:47:50;64.90;;;38.00;;
45208;SDS011;30951;43.994;26.260;2023-02-14T08:50:16;64.85;;;35.28;;
45208;SDS011;30951;43.994;26.260;2023-02-14T08:52:42;56.53;;;28.38;;
45208;SDS011;30951;43.994;26.260;2023-02-14T08:55:08;58.80;;;33.45;;
45208;SDS011;30951;43.994;26.260;2023-02-14T08:57:34;72.88;;;35.33;;
45208;SDS011;30951;43.994;26.260;2023-02-14T09:00:00;59.92;;;34.05;;
45208;SDS011;30951;43.994;26.260;2023-02-14T09:02:26;56.20;;;29.83;;
45208;SDS011;30951;43.994;26.260;2023-02-14T09:04:51;56.72;;;31.15;;
45208;SDS011;30951;43.994;26.260;2023-02-14T09:07:17;60.92;;;35.33;;
45208;SDS011;30951;43.994;26.260;2023-02-14T09:09:43;65.57;;;34.20;;
45208;SDS011;30951;43.994;26.260;2023-02-14T09:12:09;59.70;;;37.08;;
45208;SDS011;30951;43.994;26.260;2023-02-14T09:14:39;73.65;;;34.85;;
45208;SDS011;30951;43.994;26.260;2023-02-14T09:17:08;65.90;;;33.60;;
45208;SDS011;30951;43.994;26.260;2023-02-14T09:19:35;53.00;;;27.00;;
45208;SDS011;30951;43.994;26.260;2023-02-14T09:22:02;56.20;;;29.38;;
45208;SDS011;30951;43.994;26.260;2023-02-14T09:24:29;55.00;;;31.73;;
45208;SDS011;30951;43.994;26.260;2023-02-14T09:26:55;55.22;;;30.85;;
45208;SDS011;30951;43.994;26.260;2023-02-14T09:29:24;55.47;;;32.05;;
45208;SDS011;30951;43.994;26.260;2023-02-14T09:31:56;59.25;;;33.05;;
45208;SDS011;30951;43.994;26.260;2023-02-14T09:34:24;63.28;;;33.10;;
45208;SDS011;30951;43.994;26.260;2023-02-14T09:37:09;58.42;;;30.85;;
45208;SDS011;30951;43.994;26.260;2023-02-14T09:39:53;53.75;;;30.95;;
45208;SDS011;30951;43.994;26.260;2023-02-14T09:45:23;55.25;;;28.63;;
45208;SDS011;30951;43.994;26.260;2023-02-14T09:47:51;54.70;;;27.95;;
45208;SDS011;30951;43.994;26.260;2023-02-14T09:50:35;44.63;;;24.42;;
45208;SDS011;30951;43.994;26.260;2023-02-14T09:53:12;57.67;;;33.13;;
45208;SDS011;30951;43.994;26.260;2023-02-14T10:01:35;45.55;;;28.65;;
45208;SDS011;30951;43.994;26.260;2023-02-14T10:07:00;46.95;;;27.13;;
45208;SDS011;30951;43.994;26.260;2023-02-14T10:12:09;48.78;;;27.58;;
45208;SDS011;30951;43.994;26.260;2023-02-14T10:14:45;48.58;;;29.67;;
45208;SDS011;30951;43.994;26.260;2023-02-14T10:17:16;53.92;;;30.38;;
45208;SDS011;30951;43.994;26.260;2023-02-14T10:19:56;46.55;;;27.92;;
45208;SDS011;30951;43.994;26.260;2023-02-14T10:22:31;48.53;;;27.13;;
45208;SDS011;30951;43.994;26.260;2023-02-14T10:25:07;47.75;;;27.02;;
45208;SDS011;30951;43.994;26.260;2023-02-14T10:27:40;45.75;;;26.13;;
45208;SDS011;30951;43.994;26.260;2023-02-14T10:30:18;42.72;;;24.55;;
45208;SDS011;30951;43.994;26.260;2023-02-14T10:32:46;48.55;;;25.85;;
45208;SDS011;30951;43.994;26.260;2023-02-14T10:43:26;47.13;;;27.52;;
45208;SDS011;30951;43.994;26.260;2023-02-14T10:51:18;42.58;;;24.85;;
45208;SDS011;30951;43.994;26.260;2023-02-14T10:56:44;36.90;;;20.90;;
45208;SDS011;30951;43.994;26.260;2023-02-14T11:01:42;36.78;;;21.85;;
45208;SDS011;30951;43.994;26.260;2023-02-14T11:04:07;37.70;;;21.95;;
45208;SDS011;30951;43.994;26.260;2023-02-14T11:06:35;38.60;;;22.70;;
45208;SDS011;30951;43.994;26.260;2023-02-14T11:09:01;36.30;;;22.63;;
45208;SDS011;30951;43.994;26.260;2023-02-14T11:11:41;38.92;;;23.52;;
45208;SDS011;30951;43.994;26.260;2023-02-14T11:16:52;39.38;;;21.42;;
45208;SDS011;30951;43.994;26.260;2023-02-14T11:21:56;32.92;;;19.98;;
45208;SDS011;30951;43.994;26.260;2023-02-14T11:29:31;31.52;;;20.33;;
45208;SDS011;30951;43.994;26.260;2023-02-14T11:32:33;28.80;;;17.30;;
45208;SDS011;30951;43.994;26.260;2023-02-14T11:37:50;43.90;;;25.27;;
45208;SDS011;30951;43.994;26.260;2023-02-14T11:40:31;34.13;;;21.15;;
45208;SDS011;30951;43.994;26.260;2023-02-14T11:43:28;37.30;;;22.95;;
45208;SDS011;30951;43.994;26.260;2023-02-14T11:45:46;37.85;;;21.02;;
45208;SDS011;30951;43.994;26.260;2023-02-14T11:48:19;39.75;;;23.10;;
45208;SDS011;30951;43.994;26.260;2023-02-14T11:53:21;30.17;;;19.05;;
45208;SDS011;30951;43.994;26.260;2023-02-14T11:55:52;33.97;;;20.33;;
45208;SDS011;30951;43.994;26.260;2023-02-14T11:59:02;31.67;;;20.13;;
45208;SDS011;30951;43.994;26.260;2023-02-14T12:01:13;29.90;;;18.63;;
45208;SDS011;30951;43.994;26.260;2023-02-14T12:03:46;32.72;;;19.30;;
45208;SDS011;30951;43.994;26.260;2023-02-14T12:06:12;36.03;;;21.85;;
45208;SDS011;30951;43.994;26.260;2023-02-14T12:08:50;35.95;;;19.75;;
45208;SDS011;30951;43.994;26.260;2023-02-14T12:11:20;33.28;;;21.08;;
45208;SDS011;30951;43.994;26.260;2023-02-14T12:13:50;26.85;;;17.63;;
45208;SDS011;30951;43.994;26.260;2023-02-14T12:16:28;27.70;;;17.65;;
45208;SDS011;30951;43.994;26.260;2023-02-14T12:18:58;32.22;;;19.00;;
45208;SDS011;30951;43.994;26.260;2023-02-14T12:21:35;29.33;;;18.90;;
45208;SDS011;30951;43.994;26.260;2023-02-14T12:27:02;27.63;;;18.50;;
45208;SDS011;30951;43.994;26.260;2023-02-14T12:32:33;27.52;;;17.42;;
45208;SDS011;30951;43.994;26.260;2023-02-14T12:35:05;27.35;;;16.25;;
45208;SDS011;30951;43.994;26.260;2023-02-14T12:51:43;23.40;;;16.70;;
45208;SDS011;30951;43.994;26.260;2023-02-14T12:54:28;70.82;;;35.28;;
45208;SDS011;30951;43.994;26.260;2023-02-14T13:10:43;31.45;;;17.98;;
45208;SDS011;30951;43.994;26.260;2023-02-14T13:22:18;30.23;;;17.90;;
45208;SDS011;30951;43.994;26.260;2023-02-14T13:24:46;32.17;;;19.50;;
45208;SDS011;30951;43.994;26.260;2023-02-14T13:27:15;29.33;;;16.80;;
45208;SDS011;30951;43.994;26.260;2023-02-14T13:29:48;28.17;;;18.13;;
45208;SDS011;30951;43.994;26.260;2023-02-14T13:32:17;94.68;;;42.30;;
45208;SDS011;30951;43.994;26.260;2023-02-14T13:34:46;27.70;;;18.80;;
45208;SDS011;30951;43.994;26.260;2023-02-14T13:37:12;35.95;;;20.92;;
45208;SDS011;30951;43.994;26.260;2023-02-14T13:39:42;26.90;;;17.52;;
45208;SDS011;30951;43.994;26.260;2023-02-14T13:42:10;24.95;;;15.73;;
45208;SDS011;30951;43.994;26.260;2023-02-14T13:44:44;27.20;;;17.30;;
45208;SDS011;30951;43.994;26.260;2023-02-14T13:47:21;28.95;;;16.55;;
45208;SDS011;30951;43.994;26.260;2023-02-14T13:49:49;31.33;;;18.55;;
45208;SDS011;30951;43.994;26.260;2023-02-14T13:55:17;35.85;;;20.67;;
45208;SDS011;30951;43.994;26.260;2023-02-14T13:57:44;28.20;;;16.23;;
45208;SDS011;30951;43.994;26.260;2023-02-14T14:05:45;32.03;;;18.88;;
45208;SDS011;30951;43.994;26.260;2023-02-14T14:10:47;52.80;;;26.50;;
45208;SDS011;30951;43.994;26.260;2023-02-14T14:18:48;35.78;;;19.50;;
45208;SDS011;30951;43.994;26.260;2023-02-14T14:21:25;66.03;;;35.83;;
45208;SDS011;30951;43.994;26.260;2023-02-14T14:26:50;31.95;;;19.50;;
45208;SDS011;30951;43.994;26.260;2023-02-14T14:29:31;34.83;;;19.08;;
45208;SDS011;30951;43.994;26.260;2023-02-14T14:32:09;31.60;;;19.52;;
45208;SDS011;30951;43.994;26.260;2023-02-14T14:34:35;32.70;;;20.00;;
45208;SDS011;30951;43.994;26.260;2023-02-14T14:37:23;39.38;;;24.05;;
45208;SDS011;30951;43.994;26.260;2023-02-14T14:39:55;39.42;;;22.17;;
45208;SDS011;30951;43.994;26.260;2023-02-14T14:42:23;38.35;;;21.95;;
45208;SDS011;30951;43.994;26.260;2023-02-14T14:44:57;36.50;;;22.63;;
45208;SDS011;30951;43.994;26.260;2023-02-14T14:47:44;51.22;;;25.60;;
45208;SDS011;30951;43.994;26.260;2023-02-14T14:50:44;40.53;;;23.40;;
45208;SDS011;30951;43.994;26.260;2023-02-14T14:53:07;40.03;;;23.65;;
45208;SDS011;30951;43.994;26.260;2023-02-14T14:55:39;43.03;;;28.45;;
45208;SDS011;30951;43.994;26.260;2023-02-14T14:58:27;50.42;;;30.45;;
45208;SDS011;30951;43.994;26.260;2023-02-14T15:00:56;50.42;;;35.08;;
45208;SDS011;30951;43.994;26.260;2023-02-14T15:03:22;65.05;;;40.60;;
45208;SDS011;30951;43.994;26.260;2023-02-14T15:05:50;45.45;;;28.10;;
45208;SDS011;30951;43.994;26.260;2023-02-14T15:11:06;66.33;;;38.83;;
45208;SDS011;30951;43.994;26.260;2023-02-14T15:13:39;89.63;;;48.17;;
45208;SDS011;30951;43.994;26.260;2023-02-14T15:18:45;52.65;;;32.35;;
45208;SDS011;30951;43.994;26.260;2023-02-14T15:21:12;44.65;;;26.65;;
45208;SDS011;30951;43.994;26.260;2023-02-14T15:23:38;48.15;;;29.40;;
45208;SDS011;30951;43.994;26.260;2023-02-14T15:26:07;46.80;;;27.83;;
45208;SDS011;30951;43.994;26.260;2023-02-14T15:28:36;53.03;;;30.90;;
45208;SDS011;30951;43.994;26.260;2023-02-14T15:31:05;60.33;;;34.65;;
45208;SDS011;30951;43.994;26.260;2023-02-14T15:33:32;56.15;;;33.85;;
45208;SDS011;30951;43.994;26.260;2023-02-14T15:36:01;77.68;;;46.33;;
45208;SDS011;30951;43.994;26.260;2023-02-14T15:38:29;56.08;;;31.48;;
45208;SDS011;30951;43.994;26.260;2023-02-14T15:40:54;59.47;;;33.83;;
45208;SDS011;30951;43.994;26.260;2023-02-14T15:43:27;58.72;;;34.75;;
45208;SDS011;30951;43.994;26.260;2023-02-14T15:46:14;56.65;;;33.33;;
45208;SDS011;30951;43.994;26.260;2023-02-14T15:48:43;57.10;;;32.00;;
45208;SDS011;30951;43.994;26.260;2023-02-14T15:51:14;55.22;;;31.95;;
45208;SDS011;30951;43.994;26.260;2023-02-14T15:56:10;76.60;;;41.58;;
45208;SDS011;30951;43.994;26.260;2023-02-14T15:58:38;80.60;;;42.78;;
45208;SDS011;30951;43.994;26.260;2023-02-14T16:01:05;77.65;;;41.70;;
45208;SDS011;30951;43.994;26.260;2023-02-14T16:03:32;80.50;;;42.90;;
45208;SDS011;30951;43.994;26.260;2023-02-14T16:06:01;74.50;;;40.47;;
45208;SDS011;30951;43.994;26.260;2023-02-14T16:08:35;76.43;;;42.97;;
45208;SDS011;30951;43.994;26.260;2023-02-14T16:11:12;79.72;;;44.20;;
45208;SDS011;30951;43.994;26.260;2023-02-14T16:13:46;77.57;;;43.97;;
45208;SDS011;30951;43.994;26.260;2023-02-14T16:16:12;72.07;;;41.20;;
45208;SDS011;30951;43.994;26.260;2023-02-14T16:18:49;75.63;;;40.60;;
45208;SDS011;30951;43.994;26.260;2023-02-14T16:21:24;73.25;;;42.42;;
45208;SDS011;30951;43.994;26.260;2023-02-14T16:26:34;89.15;;;47.35;;
45208;SDS011;30951;43.994;26.260;2023-02-14T16:29:02;97.90;;;48.25;;
45208;SDS011;30951;43.994;26.260;2023-02-14T16:31:29;220.98;;;106.55;;
45208;SDS011;30951;43.994;26.260;2023-02-14T16:33:55;251.35;;;110.43;;
45208;SDS011;30951;43.994;26.260;2023-02-14T16:38:53;107.20;;;55.00;;
45208;SDS011;30951;43.994;26.260;2023-02-14T16:41:21;221.50;;;95.03;;
45208;SDS011;30951;43.994;26.260;2023-02-14T16:43:48;250.50;;;111.03;;
45208;SDS011;30951;43.994;26.260;2023-02-14T16:46:14;112.97;;;56.80;;
45208;SDS011;30951;43.994;26.260;2023-02-14T16:48:41;102.05;;;55.60;;
45208;SDS011;30951;43.994;26.260;2023-02-14T16:51:13;92.22;;;51.60;;
45208;SDS011;30951;43.994;26.260;2023-02-14T16:53:40;63.40;;;34.63;;
45208;SDS011;30951;43.994;26.260;2023-02-14T16:56:08;56.08;;;29.83;;